sensor_id;sensor_type;location;lat;lon;timestamp;pressure;altitude;pressure_sealevel;temperature;humidity
14612;BME280;7392;52.078;11.650;2024-03-02T00:00:54;99822.75;;;4.52;100.00
14612;BME280;7392;52.078;11.650;2024-03-02T00:03:22;99808.72;;;4.51;100.00
14612;BME280;7392;52.078;11.650;2024-03-02T00:05:50;99812.22;;;4.52;100.00
14612;BME280;7392;52.078;11.650;2024-03-02T00:08:23;99811.34;;;4.51;100.00
14612;BME280;7392;52.078;11.650;2024-03-02T00:10:52;99807.84;;;4.52;100.00
14612;BME280;7392;52.078;11.650;2024-03-02T00:13:24;99796.47;;;4.53;100.00
14612;BME280;7392;52.078;11.650;2024-03-02T00:15:54;99799.94;;;4.52;100.00
14612;BME280;7392;52.078;11.650;2024-03-02T00:18:25;99799.06;;;4.52;100.00
14612;BME280;7392;52.078;11.650;2024-03-02T00:20:54;99799.94;;;4.50;100.00
14612;BME280;7392;52.078;11.650;2024-03-02T00:23:25;99797.28;;;4.50;100.00
14612;BME280;7392;52.078;11.650;2024-03-02T00:25:55;99799.03;;;4.48;100.00
14612;BME280;7392;52.078;11.650;2024-03-02T00:28:24;99797.28;;;4.47;100.00
14612;BME280;7392;52.078;11.650;2024-03-02T00:30:58;99799.91;;;4.46;100.00
14612;BME280;7392;52.078;11.650;2024-03-02T00:33:27;99791.09;;;4.44;100.00
14612;BME280;7392;52.078;11.650;2024-03-02T00:35:57;99791.09;;;4.44;100.00
14612;BME280;7392;52.078;11.650;2024-03-02T00:38:26;99792.00;;;4.43;100.00
14612;BME280;7392;52.078;11.650;2024-03-02T00:40:56;99786.72;;;4.41;100.00
14612;BME280;7392;52.078;11.650;2024-03-02T00:43:45;99787.59;;;4.42;100.00
14612;BME280;7392;52.078;11.650;2024-03-02T00:46:19;99776.22;;;4.43;100.00
14612;BME280;7392;52.078;11.650;2024-03-02T00:48:57;99772.69;;;4.42;100.00
14612;BME280;7392;52.078;11.650;2024-03-02T00:51:27;99776.22;;;4.41;100.00
14612;BME280;7392;52.078;11.650;2024-03-02T00:53:58;99784.09;;;4.41;100.00
14612;BME280;7392;52.078;11.650;2024-03-02T00:56:26;99777.06;;;4.40;100.00
14612;BME280;7392;52.078;11.650;2024-03-02T00:58:54;99776.22;;;4.41;100.00
14612;BME280;7392;52.078;11.650;2024-03-02T01:01:23;99777.97;;;4.41;100.00
14612;BME280;7392;52.078;11.650;2024-03-02T01:03:51;99777.97;;;4.41;100.00
14612;BME280;7392;52.078;11.650;2024-03-02T01:06:19;99780.59;;;4.41;100.00
14612;BME280;7392;52.078;11.650;2024-03-02T01:08:48;99780.56;;;4.42;100.00
14612;BME280;7392;52.078;11.650;2024-03-02T01:11:19;99770.06;;;4.44;100.00
14612;BME280;7392;52.078;11.650;2024-03-02T01:13:48;99769.19;;;4.43;100.00
14612;BME280;7392;52.078;11.650;2024-03-02T01:16:16;99767.44;;;4.42;100.00
14612;BME280;7392;52.078;11.650;2024-03-02T01:18:45;99770.06;;;4.42;100.00
14612;BME280;7392;52.078;11.650;2024-03-02T01:21:15;99773.56;;;4.40;100.00
14612;BME280;7392;52.078;11.650;2024-03-02T01:23:42;99770.91;;;4.38;100.00
14612;BME280;7392;52.078;11.650;2024-03-02T01:26:10;99776.19;;;4.38;100.00
14612;BME280;7392;52.078;11.650;2024-03-02T01:28:38;99777.94;;;4.38;100.00
14612;BME280;7392;52.078;11.650;2024-03-02T01:31:06;99779.66;;;4.37;100.00
14612;BME280;7392;52.078;11.650;2024-03-02T01:33:33;99784.91;;;4.37;100.00
14612;BME280;7392;52.078;11.650;2024-03-02T01:36:03;99784.03;;;4.37;100.00
14612;BME280;7392;52.078;11.650;2024-03-02T01:38:31;99783.16;;;4.35;100.00
14612;BME280;7392;52.078;11.650;2024-03-02T01:41:00;99781.38;;;4.34;100.00
14612;BME280;7392;52.078;11.650;2024-03-02T01:43:29;99770.00;;;4.33;100.00
14612;BME280;7392;52.078;11.650;2024-03-02T01:45:56;99777.03;;;4.34;100.00
14612;BME280;7392;52.078;11.650;2024-03-02T01:48:25;99777.91;;;4.35;100.00
14612;BME280;7392;52.078;11.650;2024-03-02T01:50:52;99777.03;;;4.34;100.00
14612;BME280;7392;52.078;11.650;2024-03-02T01:53:22;99765.63;;;4.34;100.00
14612;BME280;7392;52.078;11.650;2024-03-02T01:55:50;99765.63;;;4.34;100.00
14612;BME280;7392;52.078;11.650;2024-03-02T01:58:18;99763.88;;;4.33;100.00
14612;BME280;7392;52.078;11.650;2024-03-02T02:00:45;99762.97;;;4.34;100.00
14612;BME280;7392;52.078;11.650;2024-03-02T02:03:15;99764.75;;;4.35;100.00
14612;BME280;7392;52.078;11.650;2024-03-02T02:05:42;99755.09;;;4.34;100.00
14612;BME280;7392;52.078;11.650;2024-03-02T02:08:10;99760.34;;;4.32;100.00
14612;BME280;7392;52.078;11.650;2024-03-02T02:10:39;99757.72;;;4.34;100.00
14612;BME280;7392;52.078;11.650;2024-03-02T02:13:06;99765.63;;;4.34;100.00
14612;BME280;7392;52.078;11.650;2024-03-02T02:15:34;99758.63;;;4.34;100.00
14612;BME280;7392;52.078;11.650;2024-03-02T02:18:03;99756.00;;;4.34;100.00
14612;BME280;7392;52.078;11.650;2024-03-02T02:20:31;99756.84;;;4.33;100.00
14612;BME280;7392;52.078;11.650;2024-03-02T02:23:01;99752.47;;;4.34;100.00
14612;BME280;7392;52.078;11.650;2024-03-02T02:25:29;99753.38;;;4.34;100.00
14612;BME280;7392;52.078;11.650;2024-03-02T02:27:57;99753.38;;;4.36;100.00
14612;BME280;7392;52.078;11.650;2024-03-02T02:30:27;99745.50;;;4.36;100.00
14612;BME280;7392;52.078;11.650;2024-03-02T02:32:56;99749.00;;;4.38;100.00
14612;BME280;7392;52.078;11.650;2024-03-02T02:35:24;99747.25;;;4.38;100.00
14612;BME280;7392;52.078;11.650;2024-03-02T02:37:54;99740.25;;;4.40;100.00
14612;BME280;7392;52.078;11.650;2024-03-02T02:40:24;99737.63;;;4.42;100.00
14612;BME280;7392;52.078;11.650;2024-03-02T02:42:52;99747.28;;;4.43;100.00
14612;BME280;7392;52.078;11.650;2024-03-02T02:45:20;99749.03;;;4.44;100.00
14612;BME280;7392;52.078;11.650;2024-03-02T02:47:48;99750.81;;;4.45;100.00
14612;BME280;7392;52.078;11.650;2024-03-02T02:50:16;99754.31;;;4.45;100.00
14612;BME280;7392;52.078;11.650;2024-03-02T02:52:44;99749.06;;;4.45;100.00
14612;BME280;7392;52.078;11.650;2024-03-02T02:55:13;99754.31;;;4.45;100.00
14612;BME280;7392;52.078;11.650;2024-03-02T02:57:43;99749.94;;;4.44;100.00
14612;BME280;7392;52.078;11.650;2024-03-02T03:00:13;99748.19;;;4.46;100.00
14612;BME280;7392;52.078;11.650;2024-03-02T03:02:46;99748.19;;;4.46;100.00
14612;BME280;7392;52.078;11.650;2024-03-02T03:05:16;99748.22;;;4.48;100.00
14612;BME280;7392;52.078;11.650;2024-03-02T03:07:44;99750.84;;;4.48;100.00
14612;BME280;7392;52.078;11.650;2024-03-02T03:10:12;99749.94;;;4.49;100.00
14612;BME280;7392;52.078;11.650;2024-03-02T03:12:41;99750.88;;;4.51;100.00
14612;BME280;7392;52.078;11.650;2024-03-02T03:15:11;99752.59;;;4.50;100.00
14612;BME280;7392;52.078;11.650;2024-03-02T03:17:40;99753.50;;;4.51;100.00
14612;BME280;7392;52.078;11.650;2024-03-02T03:20:08;99754.38;;;4.53;100.00
14612;BME280;7392;52.078;11.650;2024-03-02T03:22:37;99754.41;;;4.55;100.00
14612;BME280;7392;52.078;11.650;2024-03-02T03:25:06;99757.91;;;4.57;100.00
14612;BME280;7392;52.078;11.650;2024-03-02T03:27:35;99764.03;;;4.57;100.00
14612;BME280;7392;52.078;11.650;2024-03-02T03:30:04;99762.28;;;4.58;100.00
14612;BME280;7392;52.078;11.650;2024-03-02T03:32:34;99766.69;;;4.59;100.00
14612;BME280;7392;52.078;11.650;2024-03-02T03:35:02;99771.97;;;4.62;100.00
14612;BME280;7392;52.078;11.650;2024-03-02T03:37:29;99771.09;;;4.63;100.00
14612;BME280;7392;52.078;11.650;2024-03-02T03:40:00;99773.75;;;4.63;100.00
14612;BME280;7392;52.078;11.650;2024-03-02T03:42:28;99775.47;;;4.64;100.00
14612;BME280;7392;52.078;11.650;2024-03-02T03:44:56;99766.72;;;4.63;100.00
14612;BME280;7392;52.078;11.650;2024-03-02T03:47:23;99764.94;;;4.62;100.00
14612;BME280;7392;52.078;11.650;2024-03-02T03:49:52;99767.59;;;4.64;100.00
14612;BME280;7392;52.078;11.650;2024-03-02T03:52:20;99767.59;;;4.64;100.00
14612;BME280;7392;52.078;11.650;2024-03-02T03:54:48;99771.09;;;4.63;100.00
14612;BME280;7392;52.078;11.650;2024-03-02T03:57:16;99766.72;;;4.62;100.00
14612;BME280;7392;52.078;11.650;2024-03-02T03:59:44;99770.19;;;4.62;100.00
14612;BME280;7392;52.078;11.650;2024-03-02T04:02:12;99768.47;;;4.63;100.00
14612;BME280;7392;52.078;11.650;2024-03-02T04:04:40;99770.19;;;4.62;100.00
14612;BME280;7392;52.078;11.650;2024-03-02T04:07:09;99757.94;;;4.61;100.00
14612;BME280;7392;52.078;11.650;2024-03-02T04:09:37;99764.06;;;4.60;100.00
14612;BME280;7392;52.078;11.650;2024-03-02T04:12:05;99759.66;;;4.58;100.00
14612;BME280;7392;52.078;11.650;2024-03-02T04:14:32;99759.66;;;4.58;100.00
14612;BME280;7392;52.078;11.650;2024-03-02T04:17:01;99761.41;;;4.57;100.00
14612;BME280;7392;52.078;11.650;2024-03-02T04:19:28;99763.16;;;4.55;100.00
14612;BME280;7392;52.078;11.650;2024-03-02T04:21:56;99761.38;;;4.54;100.00
14612;BME280;7392;52.078;11.650;2024-03-02T04:24:28;99764.91;;;4.53;100.00
14612;BME280;7392;52.078;11.650;2024-03-02T04:26:56;99773.63;;;4.50;100.00
14612;BME280;7392;52.078;11.650;2024-03-02T04:29:24;99764.88;;;4.50;100.00
14612;BME280;7392;52.078;11.650;2024-03-02T04:31:52;99772.75;;;4.50;100.00
14612;BME280;7392;52.078;11.650;2024-03-02T04:34:19;99768.34;;;4.47;100.00
14612;BME280;7392;52.078;11.650;2024-03-02T04:36:47;99763.97;;;4.46;100.00
14612;BME280;7392;52.078;11.650;2024-03-02T04:39:15;99770.09;;;4.45;100.00
14612;BME280;7392;52.078;11.650;2024-03-02T04:41:44;99781.50;;;4.46;100.00
14612;BME280;7392;52.078;11.650;2024-03-02T04:44:12;99782.38;;;4.45;100.00
14612;BME280;7392;52.078;11.650;2024-03-02T04:46:40;99784.13;;;4.44;100.00
14612;BME280;7392;52.078;11.650;2024-03-02T04:49:07;99779.72;;;4.43;100.00
14612;BME280;7392;52.078;11.650;2024-03-02T04:51:36;99786.75;;;4.43;100.00
14612;BME280;7392;52.078;11.650;2024-03-02T04:54:03;99784.97;;;4.43;100.00
14612;BME280;7392;52.078;11.650;2024-03-02T04:56:31;99791.09;;;4.44;100.00
14612;BME280;7392;52.078;11.650;2024-03-02T04:59:12;99799.91;;;4.44;100.00
14612;BME280;7392;52.078;11.650;2024-03-02T05:01:40;99799.00;;;4.44;100.00
14612;BME280;7392;52.078;11.650;2024-03-02T05:04:08;99798.13;;;4.43;100.00
14612;BME280;7392;52.078;11.650;2024-03-02T05:06:38;99796.38;;;4.44;100.00
14612;BME280;7392;52.078;11.650;2024-03-02T05:09:06;99800.75;;;4.43;100.00
14612;BME280;7392;52.078;11.650;2024-03-02T05:11:34;99804.25;;;4.44;100.00
14612;BME280;7392;52.078;11.650;2024-03-02T05:14:21;99811.28;;;4.43;100.00
14612;BME280;7392;52.078;11.650;2024-03-02T05:16:48;99804.25;;;4.44;100.00
14612;BME280;7392;52.078;11.650;2024-03-02T05:19:16;99801.63;;;4.44;100.00
14612;BME280;7392;52.078;11.650;2024-03-02T05:21:44;99802.50;;;4.43;100.00
14612;BME280;7392;52.078;11.650;2024-03-02T05:24:11;99808.66;;;4.45;100.00
14612;BME280;7392;52.078;11.650;2024-03-02T05:26:39;99805.16;;;4.44;100.00
14612;BME280;7392;52.078;11.650;2024-03-02T05:29:07;99808.66;;;4.45;100.00
14612;BME280;7392;52.078;11.650;2024-03-02T05:31:35;99808.69;;;4.46;100.00
14612;BME280;7392;52.078;11.650;2024-03-02T05:34:03;99807.81;;;4.46;100.00
14612;BME280;7392;52.078;11.650;2024-03-02T05:36:32;99804.28;;;4.47;100.00
14612;BME280;7392;52.078;11.650;2024-03-02T05:38:59;99808.72;;;4.49;100.00
14612;BME280;7392;52.078;11.650;2024-03-02T05:41:27;99813.06;;;4.49;100.00
14612;BME280;7392;52.078;11.650;2024-03-02T05:43:55;99817.47;;;4.50;100.00
14612;BME280;7392;52.078;11.650;2024-03-02T05:46:22;99818.34;;;4.50;100.00
14612;BME280;7392;52.078;11.650;2024-03-02T05:48:51;99816.59;;;4.51;100.00
14612;BME280;7392;52.078;11.650;2024-03-02T05:51:19;99817.47;;;4.52;100.00
14612;BME280;7392;52.078;11.650;2024-03-02T05:53:47;99820.97;;;4.52;100.00
14612;BME280;7392;52.078;11.650;2024-03-02T05:56:15;99826.25;;;4.54;100.00
14612;BME280;7392;52.078;11.650;2024-03-02T05:58:43;99824.47;;;4.53;100.00
14612;BME280;7392;52.078;11.650;2024-03-02T06:01:24;99830.66;;;4.55;100.00
14612;BME280;7392;52.078;11.650;2024-03-02T06:03:56;99829.78;;;4.56;100.00
14612;BME280;7392;52.078;11.650;2024-03-02T06:06:25;99828.91;;;4.55;100.00
14612;BME280;7392;52.078;11.650;2024-03-02T06:08:53;99831.53;;;4.55;100.00
14612;BME280;7392;52.078;11.650;2024-03-02T06:11:21;99834.16;;;4.54;100.00
14612;BME280;7392;52.078;11.650;2024-03-02T06:13:49;99830.66;;;4.53;100.00
14612;BME280;7392;52.078;11.650;2024-03-02T06:16:16;99835.00;;;4.54;100.00
14612;BME280;7392;52.078;11.650;2024-03-02T06:18:44;99830.66;;;4.55;100.00
14612;BME280;7392;52.078;11.650;2024-03-02T06:21:13;99829.78;;;4.56;100.00
14612;BME280;7392;52.078;11.650;2024-03-02T06:23:40;99831.53;;;4.55;100.00
14612;BME280;7392;52.078;11.650;2024-03-02T06:26:08;99832.41;;;4.56;100.00
14612;BME280;7392;52.078;11.650;2024-03-02T06:28:36;99829.78;;;4.57;100.00
14612;BME280;7392;52.078;11.650;2024-03-02T06:31:04;99831.53;;;4.57;100.00
14612;BME280;7392;52.078;11.650;2024-03-02T06:33:31;99835.91;;;4.58;100.00
14612;BME280;7392;52.078;11.650;2024-03-02T06:35:59;99838.56;;;4.59;100.00
14612;BME280;7392;52.078;11.650;2024-03-02T06:38:28;99842.13;;;4.61;100.00
14612;BME280;7392;52.078;11.650;2024-03-02T06:40:58;99847.38;;;4.63;100.00
14612;BME280;7392;52.078;11.650;2024-03-02T06:43:26;99846.50;;;4.64;100.00
14612;BME280;7392;52.078;11.650;2024-03-02T06:45:54;99840.41;;;4.66;100.00
14612;BME280;7392;52.078;11.650;2024-03-02T06:48:22;99850.03;;;4.69;100.00
14612;BME280;7392;52.078;11.650;2024-03-02T06:50:51;99854.47;;;4.72;100.00
14612;BME280;7392;52.078;11.650;2024-03-02T06:53:19;99849.19;;;4.75;100.00
14612;BME280;7392;52.078;11.650;2024-03-02T06:55:49;99854.50;;;4.79;100.00
14612;BME280;7392;52.078;11.650;2024-03-02T06:58:16;99856.28;;;4.82;100.00
14612;BME280;7392;52.078;11.650;2024-03-02T07:00:44;99858.06;;;4.86;100.00
14612;BME280;7392;52.078;11.650;2024-03-02T07:03:12;99858.09;;;4.89;100.00
14612;BME280;7392;52.078;11.650;2024-03-02T07:05:40;99860.75;;;4.94;100.00
14612;BME280;7392;52.078;11.650;2024-03-02T07:08:07;99858.13;;;4.98;100.00
14612;BME280;7392;52.078;11.650;2024-03-02T07:10:35;99861.69;;;5.05;100.00
14612;BME280;7392;52.078;11.650;2024-03-02T07:13:04;99859.09;;;5.10;100.00
14612;BME280;7392;52.078;11.650;2024-03-02T07:15:32;99858.25;;;5.15;100.00
14612;BME280;7392;52.078;11.650;2024-03-02T07:18:21;99860.91;;;5.20;100.00
14612;BME280;7392;52.078;11.650;2024-03-02T07:20:49;99865.34;;;5.27;100.00
14612;BME280;7392;52.078;11.650;2024-03-02T07:23:17;99869.75;;;5.33;100.00
14612;BME280;7392;52.078;11.650;2024-03-02T07:25:46;99862.75;;;5.38;100.00
14612;BME280;7392;52.078;11.650;2024-03-02T07:28:19;99857.50;;;5.42;100.00
14612;BME280;7392;52.078;11.650;2024-03-02T07:30:47;99853.16;;;5.48;100.00
14612;BME280;7392;52.078;11.650;2024-03-02T07:33:15;99854.94;;;5.52;100.00
14612;BME280;7392;52.078;11.650;2024-03-02T07:35:43;99857.56;;;5.56;100.00
14612;BME280;7392;52.078;11.650;2024-03-02T07:38:11;99848.81;;;5.60;100.00
14612;BME280;7392;52.078;11.650;2024-03-02T07:40:39;99856.72;;;5.65;100.00
14612;BME280;7392;52.078;11.650;2024-03-02T07:43:06;99858.50;;;5.69;100.00
14612;BME280;7392;52.078;11.650;2024-03-02T07:45:36;99863.78;;;5.74;100.00
14612;BME280;7392;52.078;11.650;2024-03-02T07:48:06;99865.56;;;5.78;100.00
14612;BME280;7392;52.078;11.650;2024-03-02T07:50:35;99868.22;;;5.83;100.00
14612;BME280;7392;52.078;11.650;2024-03-02T07:53:04;99878.75;;;5.87;100.00
14612;BME280;7392;52.078;11.650;2024-03-02T07:55:32;99878.78;;;5.93;100.00
14612;BME280;7392;52.078;11.650;2024-03-02T07:58:00;99876.19;;;5.96;100.00
14612;BME280;7392;52.078;11.650;2024-03-02T08:00:28;99885.00;;;6.02;100.00
14612;BME280;7392;52.078;11.650;2024-03-02T08:02:57;99878.00;;;6.07;100.00
14612;BME280;7392;52.078;11.650;2024-03-02T08:05:25;99879.75;;;6.11;100.00
14612;BME280;7392;52.078;11.650;2024-03-02T08:07:54;99886.81;;;6.15;100.00
14612;BME280;7392;52.078;11.650;2024-03-02T08:10:21;99892.94;;;6.22;100.00
14612;BME280;7392;52.078;11.650;2024-03-02T08:12:49;99885.91;;;6.27;100.00
14612;BME280;7392;52.078;11.650;2024-03-02T08:15:17;99886.81;;;6.35;100.00
14612;BME280;7392;52.078;11.650;2024-03-02T08:17:44;99890.34;;;6.42;100.00
14612;BME280;7392;52.078;11.650;2024-03-02T08:20:17;99881.56;;;6.50;100.00
14612;BME280;7392;52.078;11.650;2024-03-02T08:22:46;99881.56;;;6.58;100.00
14612;BME280;7392;52.078;11.650;2024-03-02T08:25:15;99877.19;;;6.66;100.00
14612;BME280;7392;52.078;11.650;2024-03-02T08:27:51;99877.16;;;6.76;100.00
14612;BME280;7392;52.078;11.650;2024-03-02T08:30:21;99869.25;;;6.83;100.00
14612;BME280;7392;52.078;11.650;2024-03-02T08:32:50;99873.66;;;6.92;100.00
14612;BME280;7392;52.078;11.650;2024-03-02T08:35:20;99870.13;;;7.02;100.00
14612;BME280;7392;52.078;11.650;2024-03-02T08:37:50;99875.38;;;7.10;100.00
14612;BME280;7392;52.078;11.650;2024-03-02T08:40:18;99878.00;;;7.16;100.00
14612;BME280;7392;52.078;11.650;2024-03-02T08:42:47;99877.97;;;7.24;100.00
14612;BME280;7392;52.078;11.650;2024-03-02T08:45:21;99869.19;;;7.29;100.00
14612;BME280;7392;52.078;11.650;2024-03-02T08:47:50;99877.06;;;7.34;100.00
14612;BME280;7392;52.078;11.650;2024-03-02T08:50:20;99885.00;;;7.39;100.00
14612;BME280;7392;52.078;11.650;2024-03-02T08:52:51;99879.72;;;7.43;100.00
14612;BME280;7392;52.078;11.650;2024-03-02T08:55:22;99883.22;;;7.50;100.00
14612;BME280;7392;52.078;11.650;2024-03-02T08:57:59;99888.47;;;7.56;100.00
14612;BME280;7392;52.078;11.650;2024-03-02T09:00:33;99899.88;;;7.61;100.00
14612;BME280;7392;52.078;11.650;2024-03-02T09:03:01;99904.31;;;7.67;100.00
14612;BME280;7392;52.078;11.650;2024-03-02T09:05:33;99898.97;;;7.70;100.00
14612;BME280;7392;52.078;11.650;2024-03-02T09:08:06;99900.72;;;7.76;100.00
14612;BME280;7392;52.078;11.650;2024-03-02T09:10:38;99898.94;;;7.81;100.00
14612;BME280;7392;52.078;11.650;2024-03-02T09:13:12;99899.81;;;7.86;100.00
14612;BME280;7392;52.078;11.650;2024-03-02T09:15:43;99905.09;;;7.89;100.00
14612;BME280;7392;52.078;11.650;2024-03-02T09:18:32;99904.16;;;7.96;100.00
14612;BME280;7392;52.078;11.650;2024-03-02T09:21:05;99910.31;;;8.01;100.00
14612;BME280;7392;52.078;11.650;2024-03-02T09:23:34;99912.03;;;8.05;100.00
14612;BME280;7392;52.078;11.650;2024-03-02T09:26:03;99899.66;;;8.12;100.00
14612;BME280;7392;52.078;11.650;2024-03-02T09:28:44;99907.56;;;8.20;100.00
14612;BME280;7392;52.078;11.650;2024-03-02T09:31:16;99904.00;;;8.27;100.00
14612;BME280;7392;52.078;11.650;2024-03-02T09:33:53;99914.50;;;8.36;100.00
14612;BME280;7392;52.078;11.650;2024-03-02T09:36:28;99912.75;;;8.45;100.00
14612;BME280;7392;52.078;11.650;2024-03-02T09:38:58;99917.97;;;8.52;100.00
14612;BME280;7392;52.078;11.650;2024-03-02T09:41:34;99917.03;;;8.63;100.00
14612;BME280;7392;52.078;11.650;2024-03-02T09:44:14;99922.25;;;8.70;100.00
14612;BME280;7392;52.078;11.650;2024-03-02T09:46:51;99929.25;;;8.77;100.00
14612;BME280;7392;52.078;11.650;2024-03-02T09:49:46;99922.13;;;8.86;100.00
14612;BME280;7392;52.078;11.650;2024-03-02T09:52:18;99936.19;;;8.94;100.00
14612;BME280;7392;52.078;11.650;2024-03-02T09:54:50;99924.66;;;9.01;100.00
14612;BME280;7392;52.078;11.650;2024-03-02T09:57:24;99928.97;;;9.11;100.00
14612;BME280;7392;52.078;11.650;2024-03-02T10:00:00;99931.50;;;9.24;100.00
14612;BME280;7392;52.078;11.650;2024-03-02T10:02:30;99924.31;;;9.40;100.00
14612;BME280;7392;52.078;11.650;2024-03-02T10:05:00;99928.50;;;9.61;100.00
14612;BME280;7392;52.078;11.650;2024-03-02T10:07:34;99924.72;;;9.79;100.00
14612;BME280;7392;52.078;11.650;2024-03-02T10:10:14;99935.13;;;9.96;100.00
14612;BME280;7392;52.078;11.650;2024-03-02T10:12:45;99929.69;;;10.09;100.00
14612;BME280;7392;52.078;11.650;2024-03-02T10:15:28;99919.72;;;10.25;100.00
14612;BME280;7392;52.078;11.650;2024-03-02T10:18:06;99927.50;;;10.41;100.00
14612;BME280;7392;52.078;11.650;2024-03-02T10:20:45;99921.94;;;10.59;100.00
14612;BME280;7392;52.078;11.650;2024-03-02T10:23:20;99926.16;;;10.73;100.00
14612;BME280;7392;52.078;11.650;2024-03-02T10:25:51;99938.31;;;10.86;100.00
14612;BME280;7392;52.078;11.650;2024-03-02T10:28:25;99932.75;;;11.01;100.00
14612;BME280;7392;52.078;11.650;2024-03-02T10:31:00;99928.13;;;11.14;100.00
14612;BME280;7392;52.078;11.650;2024-03-02T10:33:44;99941.16;;;11.28;100.00
14612;BME280;7392;52.078;11.650;2024-03-02T10:36:33;99932.97;;;11.39;100.00
14612;BME280;7392;52.078;11.650;2024-03-02T10:39:05;99929.25;;;11.49;100.00
14612;BME280;7392;52.078;11.650;2024-03-02T10:41:40;99929.97;;;11.59;100.00
14612;BME280;7392;52.078;11.650;2024-03-02T10:44:14;99927.97;;;11.70;100.00
14612;BME280;7392;52.078;11.650;2024-03-02T10:46:53;99918.09;;;11.77;100.00
14612;BME280;7392;52.078;11.650;2024-03-02T10:49:26;99924.09;;;11.87;100.00
14612;BME280;7392;52.078;11.650;2024-03-02T10:52:06;99911.47;;;11.98;100.00
14612;BME280;7392;52.078;11.650;2024-03-02T10:54:40;99921.94;;;12.06;100.00
14612;BME280;7392;52.078;11.650;2024-03-02T10:57:24;99925.31;;;12.14;100.00
14612;BME280;7392;52.078;11.650;2024-03-02T11:00:03;99917.13;;;12.25;100.00
14612;BME280;7392;52.078;11.650;2024-03-02T11:02:46;99918.56;;;12.38;100.00
14612;BME280;7392;52.078;11.650;2024-03-02T11:05:30;99916.59;;;12.48;100.00
14612;BME280;7392;52.078;11.650;2024-03-02T11:08:02;99921.72;;;12.57;99.46
14612;BME280;7392;52.078;11.650;2024-03-02T11:10:36;99917.00;;;12.68;99.45
14612;BME280;7392;52.078;11.650;2024-03-02T11:13:09;99913.25;;;12.76;96.62
14612;BME280;7392;52.078;11.650;2024-03-02T11:15:40;99923.78;;;12.82;96.02
14612;BME280;7392;52.078;11.650;2024-03-02T11:18:13;99921.13;;;12.82;94.03
14612;BME280;7392;52.078;11.650;2024-03-02T11:20:47;99920.09;;;12.87;94.74
14612;BME280;7392;52.078;11.650;2024-03-02T11:23:16;99910.41;;;12.85;93.79
14612;BME280;7392;52.078;11.650;2024-03-02T11:25:45;99913.22;;;12.77;93.05
14612;BME280;7392;52.078;11.650;2024-03-02T11:28:14;99916.63;;;12.84;94.40
14612;BME280;7392;52.078;11.650;2024-03-02T11:30:53;99908.41;;;12.93;93.53
14612;BME280;7392;52.078;11.650;2024-03-02T11:33:25;99903.69;;;13.04;93.38
14612;BME280;7392;52.078;11.650;2024-03-02T11:36:06;99901.53;;;13.19;92.12
14612;BME280;7392;52.078;11.650;2024-03-02T11:38:52;99903.06;;;13.29;90.93
14612;BME280;7392;52.078;11.650;2024-03-02T11:41:30;99887.78;;;13.36;89.97
14612;BME280;7392;52.078;11.650;2024-03-02T11:44:06;99892.91;;;13.43;90.60
14612;BME280;7392;52.078;11.650;2024-03-02T11:46:44;99894.66;;;13.44;88.76
14612;BME280;7392;52.078;11.650;2024-03-02T11:49:14;99892.03;;;13.43;88.25
14612;BME280;7392;52.078;11.650;2024-03-02T11:52:00;99889.56;;;13.35;86.24
14612;BME280;7392;52.078;11.650;2024-03-02T11:54:35;99897.59;;;13.34;87.39
14612;BME280;7392;52.078;11.650;2024-03-02T11:57:11;99903.91;;;13.29;87.13
14612;BME280;7392;52.078;11.650;2024-03-02T11:59:42;99902.16;;;13.28;87.15
14612;BME280;7392;52.078;11.650;2024-03-02T12:02:18;99902.06;;;13.33;87.33
14612;BME280;7392;52.078;11.650;2024-03-02T12:04:54;99893.16;;;13.34;86.27
14612;BME280;7392;52.078;11.650;2024-03-02T12:07:27;99901.69;;;13.47;88.03
14612;BME280;7392;52.078;11.650;2024-03-02T12:10:04;99894.25;;;13.60;86.97
14612;BME280;7392;52.078;11.650;2024-03-02T12:12:34;99892.88;;;13.76;87.15
14612;BME280;7392;52.078;11.650;2024-03-02T12:15:16;99888.94;;;13.90;85.71
14612;BME280;7392;52.078;11.650;2024-03-02T12:17:55;99881.41;;;14.04;86.59
14612;BME280;7392;52.078;11.650;2024-03-02T12:20:27;99881.91;;;14.17;85.48
14612;BME280;7392;52.078;11.650;2024-03-02T12:23:05;99876.94;;;14.33;83.38
14612;BME280;7392;52.078;11.650;2024-03-02T12:25:35;99889.91;;;14.47;83.72
14612;BME280;7392;52.078;11.650;2024-03-02T12:31:04;99878.34;;;14.74;82.15
14612;BME280;7392;52.078;11.650;2024-03-02T12:33:52;99869.94;;;14.85;81.46
14612;BME280;7392;52.078;11.650;2024-03-02T12:36:22;99866.00;;;14.97;81.27
14612;BME280;7392;52.078;11.650;2024-03-02T12:41:50;99855.31;;;15.22;79.43
14612;BME280;7392;52.078;11.650;2024-03-02T12:44:25;99859.94;;;15.42;80.61
14612;BME280;7392;52.078;11.650;2024-03-02T12:46:58;99869.38;;;15.52;77.02
14612;BME280;7392;52.078;11.650;2024-03-02T12:49:39;99873.56;;;15.61;75.18
14612;BME280;7392;52.078;11.650;2024-03-02T12:52:13;99872.44;;;15.67;75.33
14612;BME280;7392;52.078;11.650;2024-03-02T12:54:52;99870.28;;;15.78;75.62
14612;BME280;7392;52.078;11.650;2024-03-02T12:57:31;99873.56;;;15.85;74.04
14612;BME280;7392;52.078;11.650;2024-03-02T13:00:18;99871.78;;;15.85;72.12
14612;BME280;7392;52.078;11.650;2024-03-02T13:02:53;99871.50;;;15.93;73.46
14612;BME280;7392;52.078;11.650;2024-03-02T13:05:30;99859.69;;;15.99;71.47
14612;BME280;7392;52.078;11.650;2024-03-02T13:08:03;99861.34;;;16.01;71.90
14612;BME280;7392;52.078;11.650;2024-03-02T13:10:47;99858.50;;;16.06;69.73
14612;BME280;7392;52.078;11.650;2024-03-02T13:13:26;99860.13;;;16.10;71.38
14612;BME280;7392;52.078;11.650;2024-03-02T13:16:14;99864.25;;;16.19;71.64
14612;BME280;7392;52.078;11.650;2024-03-02T13:18:49;99858.78;;;16.22;69.79
14612;BME280;7392;52.078;11.650;2024-03-02T13:21:38;99865.75;;;16.26;68.60
14612;BME280;7392;52.078;11.650;2024-03-02T13:24:10;99860.22;;;16.31;69.54
14612;BME280;7392;52.078;11.650;2024-03-02T13:26:45;99858.16;;;16.37;69.14